Midland, MI

12:40 AM EDT on September 03, 2015 (GMT -0400)
Midland Northwest | | Change Station
CLOSE
Current Station
Personal Weather Station
Location: Midland, MI
Elevation: 636 ft
Nearby Weather Stations

Elev 636 ft 43.65 °N, 84.28 °W | Updated 50 seconds ago

Mostly Cloudy
Mostly Cloudy
68.9 °F
Feels Like 68.9 °F
N
0.0
Wind Variable Wind from NNW
Gusts 0.0 mph

Today
High -- | Low -- °F
--% Chance of Precip.
Yesterday
High -- | Low -- °F
Precip. -- in
7:02 AM 8:09 PM
Waning Gibbous, 74% visible
Pressure 29.97 in
Visibility 10.0 miles
Clouds Mostly Cloudy 11000 ft
Dew Point 69 °F
Humidity 99%
Rainfall 0.00 in
Snow Depth Not available.
UV 0.0 out of 12
Pollen 10.10 out of 12
Air Quality Not available.
Flu Activity Not available.
METAR KIKW 030432Z AUTO 32003KT 10SM BKN110 20/19 A2997 RMK AO2 T02000192
Pressure 29.97 in
Visibility 10.0 miles
Clouds Mostly Cloudy 11000 ft
Dew Point 69 °F
Humidity 99%
Rainfall 0.00 in
Snow Depth Not available.
UV 0.0 out of 12
Pollen 10.10 out of 12
Air Quality Not available.
Flu Activity Not available.
METAR KIKW 030432Z AUTO 32003KT 10SM BKN110 20/19 A2997 RMK AO2 T02000192

10-Day Weather Forecast

×

Almanac

Astronomy

Sep. 03, 2015 Rise Set
Actual Time
Civil Twilight
Nautical Twilight
Astronomical Twilight
Moon
Length of Visible Light
Length of Day
Tomorrow will be .
, % of the Moon is Illuminated

Today's Extremes

State Highs State Lows

Community

WunderPhotos

Upload Photos

1,851,913 photos uploaded!

WunderBlogs® & News

Nearby

Air Quality

  Air Quality AQ Index Pollutant
Not available.

Snow Depth

Station Depth Elevation

Earthquake Activity

City Distance Mag. Time & Date
Minimum magnitude displayed is 2.5.

Coastal Water Temperatures

Place Temperature

Stations

Nearby Weather Stations

Station Location Temp. Windchill Dew Point Humidity Wind Precip. Elev Updated Type